sensor_id;sensor_type;location;lat;lon;timestamp;temperature;humidity
77865;DHT22;67061;48.524;9.040;2023-10-09T00:01:51;9.40;96.90
77865;DHT22;67061;48.524;9.040;2023-10-09T00:04:18;9.40;96.90
77865;DHT22;67061;48.524;9.040;2023-10-09T00:06:46;9.40;96.70
77865;DHT22;67061;48.524;9.040;2023-10-09T00:09:14;9.40;97.40
77865;DHT22;67061;48.524;9.040;2023-10-09T00:11:45;9.40;97.40
77865;DHT22;67061;48.524;9.040;2023-10-09T00:14:15;9.40;97.10
77865;DHT22;67061;48.524;9.040;2023-10-09T00:16:44;9.40;97.50
77865;DHT22;67061;48.524;9.040;2023-10-09T00:19:14;9.40;97.50
77865;DHT22;67061;48.524;9.040;2023-10-09T00:21:45;9.40;97.80
77865;DHT22;67061;48.524;9.040;2023-10-09T00:24:13;9.40;97.60
77865;DHT22;67061;48.524;9.040;2023-10-09T00:26:43;9.40;97.10
77865;DHT22;67061;48.524;9.040;2023-10-09T00:29:12;9.40;96.90
77865;DHT22;67061;48.524;9.040;2023-10-09T00:31:51;9.40;97.00
77865;DHT22;67061;48.524;9.040;2023-10-09T00:34:22;9.40;97.10
77865;DHT22;67061;48.524;9.040;2023-10-09T00:36:52;9.40;96.60
77865;DHT22;67061;48.524;9.040;2023-10-09T00:39:20;9.40;96.40
77865;DHT22;67061;48.524;9.040;2023-10-09T00:42:08;9.30;96.60
77865;DHT22;67061;48.524;9.040;2023-10-09T00:44:38;9.30;96.80
77865;DHT22;67061;48.524;9.040;2023-10-09T00:47:07;9.30;96.40
77865;DHT22;67061;48.524;9.040;2023-10-09T00:49:49;9.20;96.50
77865;DHT22;67061;48.524;9.040;2023-10-09T00:52:16;9.20;96.40
77865;DHT22;67061;48.524;9.040;2023-10-09T00:54:53;9.20;96.40
77865;DHT22;67061;48.524;9.040;2023-10-09T00:57:28;9.20;96.20
77865;DHT22;67061;48.524;9.040;2023-10-09T00:59:59;9.20;96.20
77865;DHT22;67061;48.524;9.040;2023-10-09T01:02:29;9.20;96.20
77865;DHT22;67061;48.524;9.040;2023-10-09T01:05:03;9.00;96.20
77865;DHT22;67061;48.524;9.040;2023-10-09T01:07:47;9.00;96.90
77865;DHT22;67061;48.524;9.040;2023-10-09T01:10:23;9.00;96.90
77865;DHT22;67061;48.524;9.040;2023-10-09T01:12:59;9.00;96.50
77865;DHT22;67061;48.524;9.040;2023-10-09T01:15:26;8.90;96.60
77865;DHT22;67061;48.524;9.040;2023-10-09T01:18:12;8.90;96.90
77865;DHT22;67061;48.524;9.040;2023-10-09T01:20:39;8.80;96.70
77865;DHT22;67061;48.524;9.040;2023-10-09T01:23:12;8.80;97.20
77865;DHT22;67061;48.524;9.040;2023-10-09T01:25:39;8.80;97.30
77865;DHT22;67061;48.524;9.040;2023-10-09T01:28:11;8.80;97.40
77865;DHT22;67061;48.524;9.040;2023-10-09T01:30:42;8.80;97.30
77865;DHT22;67061;48.524;9.040;2023-10-09T01:33:09;8.70;97.30
77865;DHT22;67061;48.524;9.040;2023-10-09T01:35:48;8.60;97.60
77865;DHT22;67061;48.524;9.040;2023-10-09T01:38:19;8.60;97.70
77865;DHT22;67061;48.524;9.040;2023-10-09T01:40:56;8.60;98.30
77865;DHT22;67061;48.524;9.040;2023-10-09T01:43:32;8.60;98.40
77865;DHT22;67061;48.524;9.040;2023-10-09T01:46:01;8.60;99.10
77865;DHT22;67061;48.524;9.040;2023-10-09T01:48:30;8.60;98.40
77865;DHT22;67061;48.524;9.040;2023-10-09T01:51:01;8.60;97.80
77865;DHT22;67061;48.524;9.040;2023-10-09T01:53:32;8.60;98.80
77865;DHT22;67061;48.524;9.040;2023-10-09T01:56:10;8.60;98.80
77865;DHT22;67061;48.524;9.040;2023-10-09T01:58:41;8.60;98.70
77865;DHT22;67061;48.524;9.040;2023-10-09T02:01:12;8.60;98.70
77865;DHT22;67061;48.524;9.040;2023-10-09T02:03:39;8.60;98.70
77865;DHT22;67061;48.524;9.040;2023-10-09T02:06:08;8.70;98.40
77865;DHT22;67061;48.524;9.040;2023-10-09T02:08:53;8.70;98.70
77865;DHT22;67061;48.524;9.040;2023-10-09T02:11:22;8.70;99.00
77865;DHT22;67061;48.524;9.040;2023-10-09T02:14:03;8.70;98.50
77865;DHT22;67061;48.524;9.040;2023-10-09T02:16:42;8.80;98.80
77865;DHT22;67061;48.524;9.040;2023-10-09T02:19:09;8.80;98.70
77865;DHT22;67061;48.524;9.040;2023-10-09T02:21:55;8.80;98.50
77865;DHT22;67061;48.524;9.040;2023-10-09T02:24:27;8.90;98.50
77865;DHT22;67061;48.524;9.040;2023-10-09T02:27:15;8.90;98.50
77865;DHT22;67061;48.524;9.040;2023-10-09T02:29:45;8.90;98.70
77865;DHT22;67061;48.524;9.040;2023-10-09T02:32:13;8.90;98.30
77865;DHT22;67061;48.524;9.040;2023-10-09T02:34:50;8.90;97.70
77865;DHT22;67061;48.524;9.040;2023-10-09T02:37:19;8.90;97.70
77865;DHT22;67061;48.524;9.040;2023-10-09T02:39:50;8.90;96.90
77865;DHT22;67061;48.524;9.040;2023-10-09T02:42:18;8.90;97.10
77865;DHT22;67061;48.524;9.040;2023-10-09T02:44:52;9.00;97.00
77865;DHT22;67061;48.524;9.040;2023-10-09T02:47:20;9.00;97.10
77865;DHT22;67061;48.524;9.040;2023-10-09T02:49:50;9.00;97.40
77865;DHT22;67061;48.524;9.040;2023-10-09T02:52:18;9.00;96.80
77865;DHT22;67061;48.524;9.040;2023-10-09T02:54:52;9.00;97.00
77865;DHT22;67061;48.524;9.040;2023-10-09T02:57:26;8.90;97.20
77865;DHT22;67061;48.524;9.040;2023-10-09T03:00:03;8.90;97.30
77865;DHT22;67061;48.524;9.040;2023-10-09T03:02:34;8.90;97.60
77865;DHT22;67061;48.524;9.040;2023-10-09T03:05:06;8.90;97.10
77865;DHT22;67061;48.524;9.040;2023-10-09T03:07:37;8.90;97.60
77865;DHT22;67061;48.524;9.040;2023-10-09T03:10:07;8.90;96.60
77865;DHT22;67061;48.524;9.040;2023-10-09T03:12:35;8.90;96.70
77865;DHT22;67061;48.524;9.040;2023-10-09T03:15:02;8.90;97.30
77865;DHT22;67061;48.524;9.040;2023-10-09T03:17:31;8.90;97.10
77865;DHT22;67061;48.524;9.040;2023-10-09T03:20:01;8.90;97.20
77865;DHT22;67061;48.524;9.040;2023-10-09T03:22:29;8.90;97.10
77865;DHT22;67061;48.524;9.040;2023-10-09T03:24:56;8.90;97.70
77865;DHT22;67061;48.524;9.040;2023-10-09T03:27:24;8.90;97.50
77865;DHT22;67061;48.524;9.040;2023-10-09T03:29:51;8.90;97.50
77865;DHT22;67061;48.524;9.040;2023-10-09T03:32:19;8.90;98.00
77865;DHT22;67061;48.524;9.040;2023-10-09T03:34:46;8.90;97.80
77865;DHT22;67061;48.524;9.040;2023-10-09T03:37:15;8.90;98.00
77865;DHT22;67061;48.524;9.040;2023-10-09T03:39:47;9.00;98.00
77865;DHT22;67061;48.524;9.040;2023-10-09T03:42:17;9.00;98.00
77865;DHT22;67061;48.524;9.040;2023-10-09T03:44:47;9.00;98.00
77865;DHT22;67061;48.524;9.040;2023-10-09T03:47:18;9.00;97.90
77865;DHT22;67061;48.524;9.040;2023-10-09T03:49:48;9.00;98.10
77865;DHT22;67061;48.524;9.040;2023-10-09T03:52:17;9.00;98.10
77865;DHT22;67061;48.524;9.040;2023-10-09T03:54:44;9.00;97.90
77865;DHT22;67061;48.524;9.040;2023-10-09T03:57:12;9.10;98.00
77865;DHT22;67061;48.524;9.040;2023-10-09T03:59:44;9.10;97.60
77865;DHT22;67061;48.524;9.040;2023-10-09T04:02:13;9.00;98.00
77865;DHT22;67061;48.524;9.040;2023-10-09T04:04:42;9.10;98.00
77865;DHT22;67061;48.524;9.040;2023-10-09T04:07:12;9.20;97.80
77865;DHT22;67061;48.524;9.040;2023-10-09T04:09:42;9.20;97.90
77865;DHT22;67061;48.524;9.040;2023-10-09T04:12:13;9.20;97.30
77865;DHT22;67061;48.524;9.040;2023-10-09T04:14:46;9.20;97.70
77865;DHT22;67061;48.524;9.040;2023-10-09T04:17:22;9.20;97.50
77865;DHT22;67061;48.524;9.040;2023-10-09T04:20:02;9.10;97.70
77865;DHT22;67061;48.524;9.040;2023-10-09T04:22:47;9.10;97.70
77865;DHT22;67061;48.524;9.040;2023-10-09T04:25:17;9.00;97.90
77865;DHT22;67061;48.524;9.040;2023-10-09T04:27:52;9.00;98.30
77865;DHT22;67061;48.524;9.040;2023-10-09T04:30:26;9.00;98.20
77865;DHT22;67061;48.524;9.040;2023-10-09T04:32:55;9.00;98.70
77865;DHT22;67061;48.524;9.040;2023-10-09T04:35:30;9.00;98.80
77865;DHT22;67061;48.524;9.040;2023-10-09T04:37:58;9.00;98.10
77865;DHT22;67061;48.524;9.040;2023-10-09T04:40:31;9.00;98.30
77865;DHT22;67061;48.524;9.040;2023-10-09T04:43:24;9.00;98.40
77865;DHT22;67061;48.524;9.040;2023-10-09T04:45:52;9.00;98.40
77865;DHT22;67061;48.524;9.040;2023-10-09T04:48:39;9.00;98.00
77865;DHT22;67061;48.524;9.040;2023-10-09T04:51:11;9.00;97.60
77865;DHT22;67061;48.524;9.040;2023-10-09T04:53:57;9.00;97.80
77865;DHT22;67061;48.524;9.040;2023-10-09T04:56:39;8.90;98.00
77865;DHT22;67061;48.524;9.040;2023-10-09T04:59:18;9.00;98.00
77865;DHT22;67061;48.524;9.040;2023-10-09T05:01:50;8.90;98.10
77865;DHT22;67061;48.524;9.040;2023-10-09T05:04:25;8.90;98.60
77865;DHT22;67061;48.524;9.040;2023-10-09T05:07:05;8.90;98.40
77865;DHT22;67061;48.524;9.040;2023-10-09T05:09:49;8.80;98.60
77865;DHT22;67061;48.524;9.040;2023-10-09T05:12:29;8.90;99.10
77865;DHT22;67061;48.524;9.040;2023-10-09T05:14:55;8.90;99.00
77865;DHT22;67061;48.524;9.040;2023-10-09T05:17:34;8.90;98.70
77865;DHT22;67061;48.524;9.040;2023-10-09T05:20:04;8.90;98.40
77865;DHT22;67061;48.524;9.040;2023-10-09T05:22:48;8.80;98.40
77865;DHT22;67061;48.524;9.040;2023-10-09T05:25:26;8.80;98.40
77865;DHT22;67061;48.524;9.040;2023-10-09T05:28:19;8.80;98.60
77865;DHT22;67061;48.524;9.040;2023-10-09T05:30:56;8.90;98.50
77865;DHT22;67061;48.524;9.040;2023-10-09T05:33:28;8.90;98.30
77865;DHT22;67061;48.524;9.040;2023-10-09T05:36:01;8.90;98.40
77865;DHT22;67061;48.524;9.040;2023-10-09T05:38:57;9.00;98.10
77865;DHT22;67061;48.524;9.040;2023-10-09T05:41:44;9.00;98.30
77865;DHT22;67061;48.524;9.040;2023-10-09T05:44:18;9.00;98.10
77865;DHT22;67061;48.524;9.040;2023-10-09T05:47:03;9.00;98.50
77865;DHT22;67061;48.524;9.040;2023-10-09T05:49:48;9.00;98.60
77865;DHT22;67061;48.524;9.040;2023-10-09T05:52:29;9.00;98.60
77865;DHT22;67061;48.524;9.040;2023-10-09T05:55:08;9.10;98.40
77865;DHT22;67061;48.524;9.040;2023-10-09T05:58:14;9.00;98.20
77865;DHT22;67061;48.524;9.040;2023-10-09T06:01:00;9.10;98.60
77865;DHT22;67061;48.524;9.040;2023-10-09T06:03:47;9.10;98.60
77865;DHT22;67061;48.524;9.040;2023-10-09T06:06:21;9.20;98.50
77865;DHT22;67061;48.524;9.040;2023-10-09T06:09:09;9.20;98.70
77865;DHT22;67061;48.524;9.040;2023-10-09T06:11:54;9.20;98.60
77865;DHT22;67061;48.524;9.040;2023-10-09T06:14:38;9.20;98.30
77865;DHT22;67061;48.524;9.040;2023-10-09T06:17:18;9.20;98.50
77865;DHT22;67061;48.524;9.040;2023-10-09T06:19:50;9.20;98.50
77865;DHT22;67061;48.524;9.040;2023-10-09T06:22:24;9.20;98.20
77865;DHT22;67061;48.524;9.040;2023-10-09T06:25:10;9.20;98.20
77865;DHT22;67061;48.524;9.040;2023-10-09T06:27:38;9.20;98.70
77865;DHT22;67061;48.524;9.040;2023-10-09T06:30:18;9.30;98.70
77865;DHT22;67061;48.524;9.040;2023-10-09T06:32:52;9.40;98.60
77865;DHT22;67061;48.524;9.040;2023-10-09T06:35:34;9.50;98.10
77865;DHT22;67061;48.524;9.040;2023-10-09T06:38:02;9.50;97.80
77865;DHT22;67061;48.524;9.040;2023-10-09T06:40:50;9.60;97.20
77865;DHT22;67061;48.524;9.040;2023-10-09T06:43:35;9.70;96.80
77865;DHT22;67061;48.524;9.040;2023-10-09T06:46:16;9.80;97.00
77865;DHT22;67061;48.524;9.040;2023-10-09T06:49:03;9.90;96.60
77865;DHT22;67061;48.524;9.040;2023-10-09T06:51:54;10.00;95.90
77865;DHT22;67061;48.524;9.040;2023-10-09T06:54:39;10.00;95.50
77865;DHT22;67061;48.524;9.040;2023-10-09T06:57:17;10.10;95.10
77865;DHT22;67061;48.524;9.040;2023-10-09T07:00:05;10.10;95.00
77865;DHT22;67061;48.524;9.040;2023-10-09T07:02:49;10.10;95.30
77865;DHT22;67061;48.524;9.040;2023-10-09T07:05:19;10.20;95.50
77865;DHT22;67061;48.524;9.040;2023-10-09T07:07:45;10.30;94.50
77865;DHT22;67061;48.524;9.040;2023-10-09T07:10:21;10.40;95.00
77865;DHT22;67061;48.524;9.040;2023-10-09T07:13:00;10.40;94.80
77865;DHT22;67061;48.524;9.040;2023-10-09T07:15:28;10.50;93.50
77865;DHT22;67061;48.524;9.040;2023-10-09T07:18:26;10.60;93.10
77865;DHT22;67061;48.524;9.040;2023-10-09T07:21:13;10.70;93.00
77865;DHT22;67061;48.524;9.040;2023-10-09T07:23:44;10.70;93.00
77865;DHT22;67061;48.524;9.040;2023-10-09T07:26:14;10.80;93.20
77865;DHT22;67061;48.524;9.040;2023-10-09T07:28:50;10.90;93.10
77865;DHT22;67061;48.524;9.040;2023-10-09T07:31:26;11.00;92.80
77865;DHT22;67061;48.524;9.040;2023-10-09T07:33:54;11.00;92.30
77865;DHT22;67061;48.524;9.040;2023-10-09T07:36:25;11.10;92.20
77865;DHT22;67061;48.524;9.040;2023-10-09T07:39:04;11.10;92.30
77865;DHT22;67061;48.524;9.040;2023-10-09T07:41:41;11.30;91.80
77865;DHT22;67061;48.524;9.040;2023-10-09T07:44:22;11.30;92.10
77865;DHT22;67061;48.524;9.040;2023-10-09T07:47:03;11.50;91.20
77865;DHT22;67061;48.524;9.040;2023-10-09T07:49:48;11.50;90.80
77865;DHT22;67061;48.524;9.040;2023-10-09T07:52:20;11.60;90.90
77865;DHT22;67061;48.524;9.040;2023-10-09T07:54:51;11.70;91.00
77865;DHT22;67061;48.524;9.040;2023-10-09T07:57:27;11.80;90.00
77865;DHT22;67061;48.524;9.040;2023-10-09T08:00:06;11.90;89.50
77865;DHT22;67061;48.524;9.040;2023-10-09T08:03:01;12.00;89.60
77865;DHT22;67061;48.524;9.040;2023-10-09T08:05:35;12.20;88.70
77865;DHT22;67061;48.524;9.040;2023-10-09T08:08:10;12.20;88.00
77865;DHT22;67061;48.524;9.040;2023-10-09T08:11:07;12.30;88.00
77865;DHT22;67061;48.524;9.040;2023-10-09T08:13:57;12.50;87.70
77865;DHT22;67061;48.524;9.040;2023-10-09T08:16:27;12.50;87.70
77865;DHT22;67061;48.524;9.040;2023-10-09T08:19:03;12.60;87.80
77865;DHT22;67061;48.524;9.040;2023-10-09T08:21:52;12.70;87.70
77865;DHT22;67061;48.524;9.040;2023-10-09T08:24:43;12.90;87.30
77865;DHT22;67061;48.524;9.040;2023-10-09T08:27:15;13.00;86.70
77865;DHT22;67061;48.524;9.040;2023-10-09T08:30:00;13.10;86.80
77865;DHT22;67061;48.524;9.040;2023-10-09T08:32:55;13.20;85.30
77865;DHT22;67061;48.524;9.040;2023-10-09T08:35:28;13.30;85.40
77865;DHT22;67061;48.524;9.040;2023-10-09T08:37:56;13.50;85.70
77865;DHT22;67061;48.524;9.040;2023-10-09T08:40:30;13.60;85.20
77865;DHT22;67061;48.524;9.040;2023-10-09T08:43:05;13.70;85.00
77865;DHT22;67061;48.524;9.040;2023-10-09T08:45:36;13.90;84.30
77865;DHT22;67061;48.524;9.040;2023-10-09T08:48:07;13.90;82.90
77865;DHT22;67061;48.524;9.040;2023-10-09T08:50:35;14.10;83.30
77865;DHT22;67061;48.524;9.040;2023-10-09T08:53:03;14.20;83.20
77865;DHT22;67061;48.524;9.040;2023-10-09T08:55:30;14.40;82.70
77865;DHT22;67061;48.524;9.040;2023-10-09T08:57:57;14.60;82.60
77865;DHT22;67061;48.524;9.040;2023-10-09T09:00:24;14.70;83.00
77865;DHT22;67061;48.524;9.040;2023-10-09T09:02:52;14.80;83.00
77865;DHT22;67061;48.524;9.040;2023-10-09T09:05:22;15.00;82.10
77865;DHT22;67061;48.524;9.040;2023-10-09T09:07:49;15.00;80.90
77865;DHT22;67061;48.524;9.040;2023-10-09T09:10:16;15.20;79.40
77865;DHT22;67061;48.524;9.040;2023-10-09T09:12:47;15.30;79.30
77865;DHT22;67061;48.524;9.040;2023-10-09T09:15:19;15.40;78.80
77865;DHT22;67061;48.524;9.040;2023-10-09T09:17:47;15.50;79.40
77865;DHT22;67061;48.524;9.040;2023-10-09T09:20:24;15.60;79.50
77865;DHT22;67061;48.524;9.040;2023-10-09T09:22:54;15.80;79.60
77865;DHT22;67061;48.524;9.040;2023-10-09T09:25:22;15.90;79.70
77865;DHT22;67061;48.524;9.040;2023-10-09T09:27:51;16.00;79.50
77865;DHT22;67061;48.524;9.040;2023-10-09T09:30:24;16.20;79.50
77865;DHT22;67061;48.524;9.040;2023-10-09T09:32:57;16.40;78.80
77865;DHT22;67061;48.524;9.040;2023-10-09T09:35:39;16.50;79.50
77865;DHT22;67061;48.524;9.040;2023-10-09T09:38:08;16.60;78.20
77865;DHT22;67061;48.524;9.040;2023-10-09T09:40:45;16.80;77.90
77865;DHT22;67061;48.524;9.040;2023-10-09T09:43:20;17.00;77.00
77865;DHT22;67061;48.524;9.040;2023-10-09T09:45:49;17.10;77.30
77865;DHT22;67061;48.524;9.040;2023-10-09T09:48:16;17.30;76.00
77865;DHT22;67061;48.524;9.040;2023-10-09T09:50:46;17.50;75.30
77865;DHT22;67061;48.524;9.040;2023-10-09T09:53:14;17.60;74.90
77865;DHT22;67061;48.524;9.040;2023-10-09T09:55:46;17.80;75.00
77865;DHT22;67061;48.524;9.040;2023-10-09T09:58:36;17.90;75.50
77865;DHT22;67061;48.524;9.040;2023-10-09T10:01:09;18.10;74.70
77865;DHT22;67061;48.524;9.040;2023-10-09T10:03:45;18.20;74.50
77865;DHT22;67061;48.524;9.040;2023-10-09T10:06:19;18.30;73.30
77865;DHT22;67061;48.524;9.040;2023-10-09T10:08:48;18.40;72.70
77865;DHT22;67061;48.524;9.040;2023-10-09T10:11:42;18.60;71.80
77865;DHT22;67061;48.524;9.040;2023-10-09T10:14:10;18.70;71.90
77865;DHT22;67061;48.524;9.040;2023-10-09T10:17:04;18.80;71.20
77865;DHT22;67061;48.524;9.040;2023-10-09T10:20:00;19.00;71.70
77865;DHT22;67061;48.524;9.040;2023-10-09T10:22:50;19.30;70.20
77865;DHT22;67061;48.524;9.040;2023-10-09T10:25:34;19.50;70.80
77865;DHT22;67061;48.524;9.040;2023-10-09T10:28:17;19.70;69.70
77865;DHT22;67061;48.524;9.040;2023-10-09T10:30:55;20.00;69.00
77865;DHT22;67061;48.524;9.040;2023-10-09T10:33:26;20.20;67.50
77865;DHT22;67061;48.524;9.040;2023-10-09T10:35:53;20.50;68.00
77865;DHT22;67061;48.524;9.040;2023-10-09T10:38:30;20.60;66.20
77865;DHT22;67061;48.524;9.040;2023-10-09T10:41:12;20.90;62.60
77865;DHT22;67061;48.524;9.040;2023-10-09T10:43:42;21.10;60.70
77865;DHT22;67061;48.524;9.040;2023-10-09T10:46:25;21.30;59.70
77865;DHT22;67061;48.524;9.040;2023-10-09T10:49:00;21.50;61.00
77865;DHT22;67061;48.524;9.040;2023-10-09T10:51:40;21.60;59.70
77865;DHT22;67061;48.524;9.040;2023-10-09T10:54:21;21.70;59.30
77865;DHT22;67061;48.524;9.040;2023-10-09T10:57:14;21.90;54.70
77865;DHT22;67061;48.524;9.040;2023-10-09T10:59:45;22.00;56.50
77865;DHT22;67061;48.524;9.040;2023-10-09T11:02:12;22.00;56.10
77865;DHT22;67061;48.524;9.040;2023-10-09T11:04:48;22.10;56.50
77865;DHT22;67061;48.524;9.040;2023-10-09T11:07:21;22.20;55.70
77865;DHT22;67061;48.524;9.040;2023-10-09T11:09:55;22.30;55.90
77865;DHT22;67061;48.524;9.040;2023-10-09T11:12:43;22.50;53.50
77865;DHT22;67061;48.524;9.040;2023-10-09T11:15:32;22.30;52.50
77865;DHT22;67061;48.524;9.040;2023-10-09T11:18:10;22.40;53.70
77865;DHT22;67061;48.524;9.040;2023-10-09T11:20:48;22.40;54.50
77865;DHT22;67061;48.524;9.040;2023-10-09T11:23:42;22.50;53.40
77865;DHT22;67061;48.524;9.040;2023-10-09T11:26:20;22.50;52.40
77865;DHT22;67061;48.524;9.040;2023-10-09T11:29:06;22.50;53.50
77865;DHT22;67061;48.524;9.040;2023-10-09T11:31:39;22.60;50.40
77865;DHT22;67061;48.524;9.040;2023-10-09T11:34:18;22.70;51.90
77865;DHT22;67061;48.524;9.040;2023-10-09T11:36:58;22.80;50.60
77865;DHT22;67061;48.524;9.040;2023-10-09T11:39:26;22.80;50.80
77865;DHT22;67061;48.524;9.040;2023-10-09T11:42:03;22.90;50.80
77865;DHT22;67061;48.524;9.040;2023-10-09T11:44:38;23.00;50.20
77865;DHT22;67061;48.524;9.040;2023-10-09T11:47:07;23.00;49.40
77865;DHT22;67061;48.524;9.040;2023-10-09T11:49:51;23.00;50.50
77865;DHT22;67061;48.524;9.040;2023-10-09T11:52:56;23.10;50.80
77865;DHT22;67061;48.524;9.040;2023-10-09T11:55:35;23.00;50.50
77865;DHT22;67061;48.524;9.040;2023-10-09T11:58:04;23.00;51.70
77865;DHT22;67061;48.524;9.040;2023-10-09T12:00:33;22.90;50.70
77865;DHT22;67061;48.524;9.040;2023-10-09T12:03:11;22.80;50.60
77865;DHT22;67061;48.524;9.040;2023-10-09T12:05:39;22.80;49.90
77865;DHT22;67061;48.524;9.040;2023-10-09T12:08:10;22.70;51.90
77865;DHT22;67061;48.524;9.040;2023-10-09T12:10:39;22.70;52.40
77865;DHT22;67061;48.524;9.040;2023-10-09T12:13:08;22.60;52.20
77865;DHT22;67061;48.524;9.040;2023-10-09T12:15:34;22.60;52.70
77865;DHT22;67061;48.524;9.040;2023-10-09T12:18:07;22.50;50.60
77865;DHT22;67061;48.524;9.040;2023-10-09T12:20:40;22.50;50.10
77865;DHT22;67061;48.524;9.040;2023-10-09T12:23:07;22.30;52.20
77865;DHT22;67061;48.524;9.040;2023-10-09T12:25:39;22.20;52.50
77865;DHT22;67061;48.524;9.040;2023-10-09T12:28:07;22.10;51.90
77865;DHT22;67061;48.524;9.040;2023-10-09T12:30:38;22.10;52.80
77865;DHT22;67061;48.524;9.040;2023-10-09T12:33:06;22.10;53.40
77865;DHT22;67061;48.524;9.040;2023-10-09T12:35:36;22.20;53.80
77865;DHT22;67061;48.524;9.040;2023-10-09T12:38:04;22.20;52.30
77865;DHT22;67061;48.524;9.040;2023-10-09T12:40:34;22.40;54.60
77865;DHT22;67061;48.524;9.040;2023-10-09T12:43:01;22.50;51.50
77865;DHT22;67061;48.524;9.040;2023-10-09T12:45:33;22.70;51.20
77865;DHT22;67061;48.524;9.040;2023-10-09T12:48:01;22.80;51.60
77865;DHT22;67061;48.524;9.040;2023-10-09T12:50:34;22.80;52.00
77865;DHT22;67061;48.524;9.040;2023-10-09T12:53:07;22.90;50.40
77865;DHT22;67061;48.524;9.040;2023-10-09T12:55:36;23.00;51.70
77865;DHT22;67061;48.524;9.040;2023-10-09T12:58:06;23.10;51.20
77865;DHT22;67061;48.524;9.040;2023-10-09T13:00:36;23.20;50.40
77865;DHT22;67061;48.524;9.040;2023-10-09T13:03:09;23.30;50.30
77865;DHT22;67061;48.524;9.040;2023-10-09T13:05:47;23.40;51.20
77865;DHT22;67061;48.524;9.040;2023-10-09T13:08:22;23.60;48.70
77865;DHT22;67061;48.524;9.040;2023-10-09T13:10:50;23.80;50.00
77865;DHT22;67061;48.524;9.040;2023-10-09T13:13:27;23.90;48.80
77865;DHT22;67061;48.524;9.040;2023-10-09T13:16:07;24.00;47.90
77865;DHT22;67061;48.524;9.040;2023-10-09T13:18:37;24.00;47.60
77865;DHT22;67061;48.524;9.040;2023-10-09T13:21:04;24.10;46.90
77865;DHT22;67061;48.524;9.040;2023-10-09T13:23:31;24.20;45.80
77865;DHT22;67061;48.524;9.040;2023-10-09T13:26:08;24.20;46.30
77865;DHT22;67061;48.524;9.040;2023-10-09T13:28:48;24.30;47.10
77865;DHT22;67061;48.524;9.040;2023-10-09T13:31:17;24.20;47.80
77865;DHT22;67061;48.524;9.040;2023-10-09T13:33:44;24.40;47.40
77865;DHT22;67061;48.524;9.040;2023-10-09T13:36:12;24.40;44.00
77865;DHT22;67061;48.524;9.040;2023-10-09T13:38:45;24.40;45.90
77865;DHT22;67061;48.524;9.040;2023-10-09T13:41:12;24.40;46.10
77865;DHT22;67061;48.524;9.040;2023-10-09T13:43:40;24.40;45.90
77865;DHT22;67061;48.524;9.040;2023-10-09T13:46:09;24.50;45.00
77865;DHT22;67061;48.524;9.040;2023-10-09T13:48:39;24.60;44.00
77865;DHT22;67061;48.524;9.040;2023-10-09T13:51:07;24.70;43.70
77865;DHT22;67061;48.524;9.040;2023-10-09T13:53:40;24.60;41.70
77865;DHT22;67061;48.524;9.040;2023-10-09T13:56:12;24.60;41.70
77865;DHT22;67061;48.524;9.040;2023-10-09T13:58:44;24.60;42.80
77865;DHT22;67061;48.524;9.040;2023-10-09T14:01:12;24.50;40.70
77865;DHT22;67061;48.524;9.040;2023-10-09T14:03:47;24.50;37.80
77865;DHT22;67061;48.524;9.040;2023-10-09T14:06:18;24.40;37.80
77865;DHT22;67061;48.524;9.040;2023-10-09T14:08:56;24.30;37.90
77865;DHT22;67061;48.524;9.040;2023-10-09T14:11:24;24.20;38.60
77865;DHT22;67061;48.524;9.040;2023-10-09T14:13:51;24.10;39.30
77865;DHT22;67061;48.524;9.040;2023-10-09T14:16:18;24.00;39.60
77865;DHT22;67061;48.524;9.040;2023-10-09T14:18:55;24.00;39.60
77865;DHT22;67061;48.524;9.040;2023-10-09T14:21:24;24.00;39.90
77865;DHT22;67061;48.524;9.040;2023-10-09T14:23:53;24.00;39.70
77865;DHT22;67061;48.524;9.040;2023-10-09T14:26:26;23.90;40.60
77865;DHT22;67061;48.524;9.040;2023-10-09T14:28:54;23.80;40.80
77865;DHT22;67061;48.524;9.040;2023-10-09T14:31:23;23.80;41.80
77865;DHT22;67061;48.524;9.040;2023-10-09T14:33:55;23.60;42.70
77865;DHT22;67061;48.524;9.040;2023-10-09T14:36:23;23.60;42.90
77865;DHT22;67061;48.524;9.040;2023-10-09T14:38:52;23.60;42.80
77865;DHT22;67061;48.524;9.040;2023-10-09T14:41:20;23.60;44.20
77865;DHT22;67061;48.524;9.040;2023-10-09T14:43:50;23.50;44.50
77865;DHT22;67061;48.524;9.040;2023-10-09T14:46:18;23.40;44.30
77865;DHT22;67061;48.524;9.040;2023-10-09T14:48:51;23.40;45.30
77865;DHT22;67061;48.524;9.040;2023-10-09T14:51:21;23.30;45.00
77865;DHT22;67061;48.524;9.040;2023-10-09T14:53:56;23.30;44.90
77865;DHT22;67061;48.524;9.040;2023-10-09T14:56:27;23.30;43.50
77865;DHT22;67061;48.524;9.040;2023-10-09T14:58:59;23.40;43.40
77865;DHT22;67061;48.524;9.040;2023-10-09T15:01:27;23.40;43.70
77865;DHT22;67061;48.524;9.040;2023-10-09T15:03:56;23.50;42.80
77865;DHT22;67061;48.524;9.040;2023-10-09T15:06:27;23.50;42.60
77865;DHT22;67061;48.524;9.040;2023-10-09T15:08:56;23.50;43.00
77865;DHT22;67061;48.524;9.040;2023-10-09T15:11:24;23.60;42.70
77865;DHT22;67061;48.524;9.040;2023-10-09T15:13:54;23.60;44.00
77865;DHT22;67061;48.524;9.040;2023-10-09T15:16:21;23.60;43.00
77865;DHT22;67061;48.524;9.040;2023-10-09T15:18:53;23.60;44.20
77865;DHT22;67061;48.524;9.040;2023-10-09T15:21:22;23.60;43.70
77865;DHT22;67061;48.524;9.040;2023-10-09T15:23:54;23.50;43.60
77865;DHT22;67061;48.524;9.040;2023-10-09T15:26:21;23.40;43.20
77865;DHT22;67061;48.524;9.040;2023-10-09T15:28:49;23.40;43.00
77865;DHT22;67061;48.524;9.040;2023-10-09T15:31:17;23.40;43.30
77865;DHT22;67061;48.524;9.040;2023-10-09T15:33:47;23.30;43.10
77865;DHT22;67061;48.524;9.040;2023-10-09T15:36:17;23.20;44.30
77865;DHT22;67061;48.524;9.040;2023-10-09T15:38:46;23.10;43.60
77865;DHT22;67061;48.524;9.040;2023-10-09T15:41:14;23.10;44.10
77865;DHT22;67061;48.524;9.040;2023-10-09T15:43:42;23.10;45.40
77865;DHT22;67061;48.524;9.040;2023-10-09T15:46:12;23.00;45.50
77865;DHT22;67061;48.524;9.040;2023-10-09T15:48:41;22.90;46.30
77865;DHT22;67061;48.524;9.040;2023-10-09T15:51:12;22.80;46.80
77865;DHT22;67061;48.524;9.040;2023-10-09T15:53:41;22.70;46.90
77865;DHT22;67061;48.524;9.040;2023-10-09T15:56:08;22.50;47.90
77865;DHT22;67061;48.524;9.040;2023-10-09T15:58:39;22.50;47.40
77865;DHT22;67061;48.524;9.040;2023-10-09T16:01:09;22.30;48.10
77865;DHT22;67061;48.524;9.040;2023-10-09T16:03:39;22.20;48.70
77865;DHT22;67061;48.524;9.040;2023-10-09T16:06:08;22.00;49.50
77865;DHT22;67061;48.524;9.040;2023-10-09T16:08:39;21.90;50.20
77865;DHT22;67061;48.524;9.040;2023-10-09T16:11:05;21.70;50.30
77865;DHT22;67061;48.524;9.040;2023-10-09T16:13:33;21.60;51.70
77865;DHT22;67061;48.524;9.040;2023-10-09T16:16:01;21.50;50.80
77865;DHT22;67061;48.524;9.040;2023-10-09T16:18:33;21.30;51.90
77865;DHT22;67061;48.524;9.040;2023-10-09T16:21:01;21.10;50.90